createdAt,value
2018-04-12T00:02:23.048Z,12.00
2018-04-12T00:08:27.449Z,12.00
2018-04-12T00:14:31.959Z,12.00
2018-04-12T00:20:37.276Z,11.90
2018-04-12T00:26:41.797Z,11.90
2018-04-12T00:32:46.996Z,11.70
2018-04-12T00:38:51.457Z,11.70
2018-04-12T00:44:55.839Z,11.50
2018-04-12T00:51:00.264Z,11.30
2018-04-12T00:57:04.753Z,11.00
2018-04-12T01:03:09.193Z,10.80
2018-04-12T01:09:14.402Z,10.60
2018-04-12T01:15:18.763Z,10.40
2018-04-12T01:21:24.791Z,10.10
2018-04-12T01:27:29.227Z,10.20
2018-04-12T01:33:33.701Z,10.10
2018-04-12T01:39:38.070Z,10.00
2018-04-12T01:45:43.002Z,9.90
2018-04-12T01:51:47.864Z,9.90
2018-04-12T01:57:53.132Z,9.60
2018-04-12T02:03:57.612Z,9.60
2018-04-12T02:10:02.073Z,9.50
2018-04-12T02:16:06.450Z,9.50
2018-04-12T02:22:11.754Z,9.40
2018-04-12T02:28:16.112Z,9.30
2018-04-12T02:34:21.247Z,9.20
2018-04-12T02:40:25.638Z,9.20
2018-04-12T02:46:30.038Z,9.30
2018-04-12T02:52:34.446Z,9.30
2018-04-12T02:58:38.882Z,9.20
2018-04-12T03:04:43.571Z,9.20
2018-04-12T03:10:48.702Z,9.10
2018-04-12T03:16:53.186Z,9.00
2018-04-12T03:22:57.548Z,8.90
2018-04-12T03:29:01.938Z,8.80
2018-04-12T03:35:06.310Z,8.70
2018-04-12T03:41:11.227Z,8.60
2018-04-12T03:47:16.488Z,8.50
2018-04-12T03:53:21.070Z,8.50
2018-04-12T03:59:25.843Z,8.60
2018-04-12T04:05:30.503Z,8.60
2018-04-12T04:11:35.243Z,8.60
2018-04-12T04:17:57.526Z,8.50
2018-04-12T04:24:02.069Z,8.40
2018-04-12T04:30:07.355Z,8.20
2018-04-12T04:36:12.873Z,8.20
2018-04-12T04:42:17.224Z,8.40
2018-04-12T04:48:21.667Z,8.50
2018-04-12T04:54:26.042Z,8.60
2018-04-12T05:00:30.390Z,8.70
2018-04-12T05:06:34.759Z,8.70
2018-04-12T05:12:39.423Z,8.70
2018-04-12T05:18:44.669Z,9.10
2018-04-12T05:24:49.032Z,9.00
2018-04-12T05:30:53.442Z,9.30
2018-04-12T05:36:58.612Z,9.60
2018-04-12T05:43:03.080Z,9.60
2018-04-12T05:49:07.452Z,9.70
2018-04-12T05:55:13.129Z,9.80
2018-04-12T06:01:17.483Z,9.90
2018-04-12T06:07:22.672Z,10.30
2018-04-12T06:13:28.532Z,10.60
2018-04-12T06:19:32.951Z,10.60
2018-04-12T06:25:38.081Z,11.30
2018-04-12T06:31:42.768Z,11.30
2018-04-12T06:37:47.171Z,11.70
2018-04-12T06:43:51.726Z,11.90
2018-04-12T06:49:57.303Z,12.40
2018-04-12T06:56:02.004Z,12.40
2018-04-12T07:02:06.371Z,12.70
2018-04-12T07:08:10.905Z,13.10
2018-04-12T07:14:15.448Z,13.50
2018-04-12T07:20:19.828Z,13.70
2018-04-12T07:26:24.435Z,14.00
2018-04-12T07:32:29.054Z,13.70
2018-04-12T07:38:33.420Z,13.40
2018-04-12T07:44:37.788Z,13.30
2018-04-12T07:50:43.051Z,13.90
2018-04-12T07:56:47.447Z,14.50
2018-04-12T08:02:51.806Z,14.50
2018-04-12T08:08:56.226Z,14.50
2018-04-12T08:15:00.584Z,14.30
2018-04-12T08:21:05.720Z,14.60
2018-04-12T08:27:10.439Z,14.50
2018-04-12T08:33:14.821Z,14.70
2018-04-12T08:39:19.201Z,15.00
2018-04-12T08:45:24.411Z,15.60
2018-04-12T08:51:28.829Z,15.60
2018-04-12T08:57:33.182Z,15.70
2018-04-12T09:03:37.555Z,15.80
2018-04-12T09:09:42.120Z,16.20
2018-04-12T09:15:46.557Z,16.60
2018-04-12T09:21:51.794Z,17.00
2018-04-12T09:27:56.394Z,16.90
2018-04-12T09:34:00.792Z,17.40
2018-04-12T09:40:05.179Z,17.80
2018-04-12T09:46:09.623Z,18.40
2018-04-12T09:52:14.178Z,18.70
2018-04-12T09:58:18.714Z,18.60
2018-04-12T10:04:27.029Z,18.10
2018-04-12T10:10:31.406Z,17.90
2018-04-12T10:16:35.912Z,18.00
2018-04-12T10:22:40.410Z,18.70
2018-04-12T10:28:44.849Z,18.90
2018-04-12T10:34:49.351Z,19.20
2018-04-12T10:40:53.723Z,19.30
2018-04-12T10:46:58.152Z,20.60
2018-04-12T10:53:02.633Z,23.40
2018-04-12T10:59:07.765Z,26.40
2018-04-12T11:05:13.020Z,27.10
2018-04-12T11:11:17.445Z,27.10
2018-04-12T11:17:21.809Z,27.30
2018-04-12T11:23:26.192Z,29.00
2018-04-12T11:29:30.623Z,28.20
2018-04-12T11:35:35.010Z,27.80
2018-04-12T11:41:39.365Z,28.50
2018-04-12T11:47:43.761Z,28.50
2018-04-12T11:53:48.157Z,30.00
2018-04-12T11:59:53.360Z,30.10
2018-04-12T12:05:57.908Z,30.10
2018-04-12T12:12:02.382Z,28.20
2018-04-12T12:18:06.770Z,28.20
2018-04-12T12:24:11.698Z,27.90
2018-04-12T12:30:16.336Z,26.70
2018-04-12T12:36:20.712Z,27.30
2018-04-12T12:42:30.880Z,28.00
2018-04-12T12:48:36.036Z,27.80
2018-04-12T12:54:40.513Z,27.70
2018-04-12T13:00:45.232Z,28.70
2018-04-12T13:06:55.837Z,29.30
2018-04-12T13:13:00.202Z,29.20
2018-04-12T13:19:10.345Z,28.20
2018-04-12T13:25:21.371Z,27.30
2018-04-12T13:31:25.736Z,27.30
2018-04-12T13:37:30.103Z,26.90
2018-04-12T13:43:34.479Z,27.00
2018-04-12T13:49:38.855Z,26.10
2018-04-12T13:55:43.216Z,25.60
2018-04-12T14:01:47.610Z,26.00
2018-04-12T14:07:53.484Z,25.20
2018-04-12T14:13:57.860Z,25.20
2018-04-12T14:20:13.735Z,25.30
2018-04-12T14:26:23.983Z,25.20
2018-04-12T14:32:34.394Z,25.30
2018-04-12T14:38:39.549Z,23.80
2018-04-12T14:44:43.944Z,23.80
2018-04-12T14:50:55.020Z,22.90
2018-04-12T14:57:05.328Z,22.80
2018-04-12T15:03:15.219Z,22.60
2018-04-12T15:09:25.564Z,22.30
2018-04-12T15:15:41.709Z,22.00
2018-04-12T15:21:57.720Z,21.90
2018-04-12T15:28:13.710Z,21.70
2018-04-12T15:34:23.902Z,21.30
2018-04-12T15:40:28.280Z,21.10
2018-04-12T15:46:32.756Z,21.10
2018-04-12T15:52:49.023Z,21.00
2018-04-12T15:58:53.598Z,21.00
2018-04-12T16:04:57.972Z,20.80
2018-04-12T16:11:08.319Z,20.70
2018-04-12T16:17:18.503Z,20.80
2018-04-12T16:23:22.967Z,20.80
2018-04-12T16:29:40.011Z,20.50
2018-04-12T16:35:45.154Z,20.10
2018-04-12T16:41:55.408Z,20.10
2018-04-12T16:48:05.750Z,20.00
2018-04-12T16:54:15.925Z,19.80
2018-04-12T17:00:20.319Z,19.60
2018-04-12T17:06:31.500Z,19.40
2018-04-12T17:12:41.791Z,19.30
2018-04-12T17:18:46.159Z,19.20
2018-04-12T17:24:57.078Z,19.20
2018-04-12T17:31:07.853Z,19.10
2018-04-12T17:37:23.800Z,19.10
2018-04-12T17:43:34.066Z,19.00
2018-04-12T17:49:39.377Z,18.60
2018-04-12T17:55:55.399Z,18.60
2018-04-12T18:01:59.760Z,18.40
2018-04-12T18:08:10.193Z,18.30
2018-04-12T18:14:26.016Z,18.30
2018-04-12T18:20:30.373Z,18.30
2018-04-12T18:26:34.743Z,18.20
2018-04-12T18:32:45.073Z,18.20
2018-04-12T18:38:49.491Z,18.20
2018-04-12T18:45:00.573Z,18.20
2018-04-12T18:51:10.871Z,18.20
2018-04-12T18:57:15.258Z,18.10
2018-04-12T19:03:19.633Z,18.10
2018-04-12T19:09:35.503Z,18.00
2018-04-12T19:15:40.119Z,17.90
2018-04-12T19:21:44.832Z,17.70
2018-04-12T19:27:49.217Z,17.70
2018-04-12T19:33:53.573Z,17.80
2018-04-12T19:39:57.930Z,17.80
2018-04-12T19:46:02.312Z,17.80
2018-04-12T19:52:06.688Z,17.90
2018-04-12T19:58:16.912Z,18.10
2018-04-12T20:04:21.282Z,18.30
2018-04-12T20:10:25.645Z,18.20
2018-04-12T20:16:35.851Z,18.10
2018-04-12T20:22:40.604Z,17.70
2018-04-12T20:28:56.560Z,17.40
2018-04-12T20:35:07.616Z,16.90
2018-04-12T20:41:17.982Z,16.80
2018-04-12T20:47:28.391Z,16.70
2018-04-12T20:53:44.558Z,16.50
2018-04-12T20:59:54.889Z,16.40
2018-04-12T21:06:00.052Z,16.20
2018-04-12T21:12:04.419Z,16.10
2018-04-12T21:18:20.622Z,16.10
2018-04-12T21:24:25.853Z,16.00
2018-04-12T21:30:36.200Z,16.00
2018-04-12T21:36:40.895Z,16.00
2018-04-12T21:42:45.414Z,15.90
2018-04-12T21:48:50.212Z,15.80
2018-04-12T21:54:54.580Z,15.80
2018-04-12T22:00:58.937Z,15.80
2018-04-12T22:07:09.151Z,15.90
2018-04-12T22:13:13.631Z,16.60
2018-04-12T22:19:23.983Z,17.10
2018-04-12T22:25:28.415Z,17.20
2018-04-12T22:31:51.015Z,17.10
2018-04-12T22:38:07.562Z,17.00
2018-04-12T22:44:12.038Z,17.00
2018-04-12T22:50:22.388Z,16.90
2018-04-12T22:56:26.855Z,16.90
2018-04-12T23:02:31.223Z,16.70
2018-04-12T23:08:41.874Z,16.50
2018-04-12T23:14:46.347Z,16.30
2018-04-12T23:20:56.470Z,16.00
2018-04-12T23:27:01.011Z,15.80
2018-04-12T23:33:12.470Z,15.60
2018-04-12T23:39:28.434Z,15.50
2018-04-12T23:45:38.844Z,15.40
2018-04-12T23:51:43.373Z,15.30
2018-04-12T23:57:47.742Z,15.20
